createdAt,value
2023-05-16T05:00:51.913Z,97539.56
2023-05-16T05:05:53.351Z,97542.47
2023-05-16T05:10:56.337Z,97543.53
2023-05-16T05:15:57.767Z,97559.75
2023-05-16T05:20:59.814Z,97557.28
2023-05-16T05:26:02.140Z,97568.13
2023-05-16T05:31:05.290Z,97568.53
2023-05-16T05:36:07.184Z,97575.91
2023-05-16T05:41:08.578Z,97578.19
2023-05-16T05:46:10.181Z,97581.75
2023-05-16T05:51:14.068Z,97591.22
2023-05-16T05:56:15.540Z,97595.69
2023-05-16T06:01:17.150Z,97601.38
2023-05-16T06:06:21.612Z,97603.50
2023-05-16T06:11:23.203Z,97621.88
2023-05-16T06:16:25.956Z,97630.56
2023-05-16T06:21:27.345Z,97618.88
2023-05-16T06:26:28.784Z,97630.66
2023-05-16T06:31:31.337Z,97624.28
2023-05-16T06:36:33.036Z,97633.44
2023-05-16T06:41:34.512Z,97633.75
2023-05-16T06:46:36.181Z,97641.94
2023-05-16T06:51:37.660Z,97641.94
2023-05-16T06:56:39.153Z,97641.13
2023-05-16T07:01:41.182Z,97638.50
2023-05-16T07:06:42.732Z,97639.53
2023-05-16T07:11:44.211Z,97642.22
2023-05-16T07:16:45.841Z,97649.13
2023-05-16T07:21:47.358Z,97665.00
2023-05-16T07:26:49.031Z,97670.72
2023-05-16T07:31:50.606Z,97666.38
2023-05-16T07:36:52.249Z,97683.34
2023-05-16T07:41:53.714Z,97669.72
2023-05-16T07:46:55.300Z,97679.97
2023-05-16T07:51:56.764Z,97686.72
2023-05-16T07:56:58.284Z,97679.44
2023-05-16T08:01:59.941Z,97686.44
2023-05-16T08:07:01.570Z,97698.13
2023-05-16T08:12:03.823Z,97687.19
2023-05-16T08:17:05.775Z,97702.19
2023-05-16T08:22:09.296Z,97705.41
2023-05-16T08:27:21.151Z,97716.91
2023-05-16T08:32:23.163Z,97719.78
2023-05-16T08:37:24.744Z,97725.84
2023-05-16T08:42:27.329Z,97732.84
2023-05-16T08:47:31.639Z,97739.38
2023-05-16T08:52:35.217Z,97754.44
2023-05-16T08:57:37.124Z,97768.91
2023-05-16T09:02:40.758Z,97751.41
2023-05-16T09:07:43.536Z,97756.50
2023-05-16T09:12:44.954Z,97752.34
2023-05-16T09:17:47.450Z,97760.97
2023-05-16T09:22:54.870Z,97765.13
2023-05-16T09:27:57.914Z,97770.09
2023-05-16T09:32:59.962Z,97779.66
2023-05-16T09:38:01.570Z,97793.72
2023-05-16T09:43:07.752Z,97788.84
2023-05-16T09:48:12.945Z,97796.13
2023-05-16T09:53:14.554Z,97796.78
2023-05-16T09:58:18.209Z,97802.19
2023-05-16T10:03:19.956Z,97815.19
2023-05-16T10:08:25.925Z,97810.94
2023-05-16T10:13:30.107Z,97802.34
2023-05-16T10:18:32.355Z,97804.38
2023-05-16T10:23:34.772Z,97802.72
2023-05-16T10:28:36.524Z,97804.38
2023-05-16T10:33:39.661Z,97804.91
2023-05-16T10:38:42.791Z,97798.78
2023-05-16T10:43:46.328Z,97799.03
2023-05-16T10:48:50.027Z,97812.88
2023-05-16T10:53:53.723Z,97801.31
2023-05-16T10:58:56.716Z,97800.50
2023-05-16T11:03:58.885Z,97788.72
2023-05-16T11:09:04.204Z,97798.19
2023-05-16T11:14:05.750Z,97802.13
2023-05-16T11:19:08.480Z,97796.72
2023-05-16T11:24:30.419Z,97785.09
2023-05-16T11:29:34.361Z,97783.38
2023-05-16T11:34:37.894Z,97779.34
2023-05-16T11:39:39.447Z,97776.47
2023-05-16T11:44:41.289Z,97769.03
2023-05-16T11:49:43.225Z,97774.81
2023-05-16T11:54:44.804Z,97770.69
2023-05-16T11:59:46.390Z,97765.41
2023-05-16T12:04:50.360Z,97775.31
2023-05-16T12:09:53.734Z,97774.47
2023-05-16T12:14:55.312Z,97773.03
2023-05-16T12:19:56.980Z,97767.44
2023-05-16T12:25:32.005Z,97785.78
2023-05-16T12:30:33.901Z,97795.88
2023-05-16T12:35:39.008Z,97802.47
2023-05-16T12:40:42.194Z,97812.28
2023-05-16T12:45:57.064Z,97806.69
2023-05-16T12:51:16.256Z,97794.28
2023-05-16T12:56:17.760Z,97806.06
2023-05-16T13:01:19.259Z,97813.56
2023-05-16T13:06:20.750Z,97822.69
2023-05-16T13:11:22.610Z,97827.25
2023-05-16T13:16:24.114Z,97838.00
2023-05-16T13:21:27.991Z,97830.22
2023-05-16T13:26:30.262Z,97845.50
2023-05-16T13:31:31.823Z,97848.81
2023-05-16T13:36:49.253Z,97846.28
2023-05-16T13:41:54.325Z,97854.09
2023-05-16T13:46:56.964Z,97853.44
2023-05-16T13:51:58.928Z,97850.72
2023-05-16T13:57:02.041Z,97854.44
2023-05-16T14:02:03.781Z,97859.09
2023-05-16T14:07:05.433Z,97847.28
2023-05-16T14:12:07.724Z,97837.41
2023-05-16T14:17:09.219Z,97845.88
2023-05-16T14:22:10.803Z,97837.78
2023-05-16T14:27:12.333Z,97850.47
2023-05-16T14:32:15.071Z,97847.06
2023-05-16T14:37:16.901Z,97833.97
2023-05-16T14:42:18.449Z,97833.72
2023-05-16T14:47:19.948Z,97847.28
2023-05-16T14:52:21.934Z,97869.16
2023-05-16T14:57:23.463Z,97879.88
2023-05-16T15:02:26.655Z,97876.81
2023-05-16T15:07:28.202Z,97880.94
2023-05-16T15:12:29.710Z,97880.50
2023-05-16T15:17:31.271Z,97885.47
2023-05-16T15:22:32.739Z,97874.81
2023-05-16T15:27:34.376Z,97874.50
2023-05-16T15:32:35.911Z,97864.66
2023-05-16T15:37:37.620Z,97859.91
2023-05-16T15:42:39.168Z,97871.69
2023-05-16T15:47:41.906Z,97857.16
2023-05-16T15:52:43.560Z,97859.94
2023-05-16T15:57:45.089Z,97864.16
2023-05-16T16:02:48.044Z,97872.06
2023-05-16T16:07:49.617Z,97868.59
2023-05-16T16:13:01.476Z,97850.88
2023-05-16T16:18:03.150Z,97848.19
2023-05-16T16:23:04.728Z,97842.63
2023-05-16T16:28:06.595Z,97844.22
2023-05-16T16:33:08.130Z,97843.63
2023-05-16T16:38:09.780Z,97844.53
2023-05-16T16:43:11.344Z,97846.38
2023-05-16T16:48:12.841Z,97860.25
2023-05-16T16:53:14.435Z,97863.56
2023-05-16T16:58:16.160Z,97866.91
2023-05-16T17:03:17.932Z,97870.66
2023-05-16T17:08:20.044Z,97871.09
2023-05-16T17:13:21.618Z,97892.19
2023-05-16T17:18:26.963Z,97881.22
2023-05-16T17:23:28.444Z,97895.44
2023-05-16T17:28:31.357Z,97885.34
2023-05-16T17:33:32.894Z,97879.31
2023-05-16T17:38:34.686Z,97885.53
2023-05-16T17:43:36.321Z,97888.66
2023-05-16T17:48:37.896Z,97898.81
2023-05-16T17:53:39.508Z,97890.97
2023-05-16T17:58:41.698Z,97889.72
2023-05-16T18:03:43.323Z,97883.09
2023-05-16T18:08:44.889Z,97904.16
2023-05-16T18:13:46.363Z,97897.53
2023-05-16T18:18:47.864Z,97901.13
2023-05-16T18:23:49.429Z,97908.47
2023-05-16T18:28:50.968Z,97910.44
2023-05-16T18:33:52.470Z,97906.41
2023-05-16T18:38:54.025Z,97917.00
2023-05-16T18:43:56.482Z,97916.84
2023-05-16T18:48:58.067Z,97930.50
2023-05-16T18:53:59.532Z,97936.94
2023-05-16T18:59:01.049Z,97939.69
2023-05-16T19:04:02.619Z,97950.63
2023-05-16T19:09:04.452Z,97956.84
2023-05-16T19:14:06.601Z,97957.06
2023-05-16T19:19:08.324Z,97962.63
2023-05-16T19:24:09.889Z,97968.34
2023-05-16T19:29:11.451Z,97962.19
2023-05-16T19:34:13.436Z,97968.97
2023-05-16T19:39:14.936Z,97964.91
2023-05-16T19:44:16.408Z,97962.50
2023-05-16T19:49:20.099Z,97970.59
2023-05-16T19:54:21.804Z,97985.50
2023-05-16T19:59:23.316Z,97995.25
2023-05-16T20:04:25.434Z,97997.97
2023-05-16T20:09:28.419Z,98001.34
2023-05-16T20:14:30.056Z,98001.06
2023-05-16T20:19:31.735Z,98006.16
2023-05-16T20:24:33.327Z,98007.56
2023-05-16T20:29:35.028Z,98007.31
2023-05-16T20:34:36.807Z,98017.38
2023-05-16T20:39:38.959Z,98006.13
2023-05-16T20:44:41.445Z,98014.16
2023-05-16T20:49:42.946Z,98020.53
2023-05-16T20:54:44.584Z,98025.03
2023-05-16T20:59:46.075Z,98023.03
2023-05-16T21:04:47.653Z,98023.72
2023-05-16T21:09:49.187Z,98033.41
2023-05-16T21:14:50.641Z,98037.78
2023-05-16T21:19:52.361Z,98050.09
2023-05-16T21:24:53.999Z,98043.13
2023-05-16T21:29:55.482Z,98049.31
2023-05-16T21:34:57.041Z,98041.16
2023-05-16T21:39:58.671Z,98055.63
2023-05-16T21:45:00.269Z,98052.47
2023-05-16T21:50:01.771Z,98049.31
2023-05-16T21:55:04.500Z,98055.63
